Yellowstone Airport
KWYS : rendu visible

Aérodrome :











RETROUVEZ-NOUS SUR...

 
LOGIN :

S'inscrire | Disclaimer

   EN    FR    IT 

 









Légende :    VFR   VFR Marginal   IFR   IFR Intensif   IFR Très Intensif
Visi : 
Plafond : 
>= 8 km
>= 3000ft
5 à 8 km
1000 à 3000 ft
1500m à 5 km
500 à 1000 ft
800 à 1500m
200 à 500 ft
< 800m
< 200 ft
Symboles :   Orages  Brouillard  Fortes neiges  Fortes précipitations  Vent > 20 kt






- Altitude de l'aérodrome : 6649 ft


KWYS - Yellowstone

DERNIER METAR :
  • 051335Z AUTO 00000KT 10SM CLR 09/06 A3021 RMK AO2

METARs EXPIRÉS :
  • 051315Z AUTO 00000KT 10SM CLR 07/06 A3022 RMK AO2
  • 051255Z AUTO 21003KT 10SM CLR 05/04 A3021 RMK AO2
  • 051235Z AUTO 00000KT 10SM CLR 04/04 A3021 RMK AO2
  • 051215Z AUTO 00000KT 10SM CLR 04/04 A3020 RMK AO2
  • 051155Z AUTO 00000KT 10SM CLR 04/04 A3020 RMK AO2
  • 051135Z AUTO 00000KT 10SM CLR 05/05 A3020 RMK AO2
  • 051115Z AUTO 00000KT 10SM CLR 05/04 A3019 RMK AO2
  • 051055Z AUTO 00000KT 10SM CLR 05/05 A3019 RMK AO2

TAF KWYS
Valide du 05 à 12h jusqu'au 06 à 12h UTC


051134Z 0512/0612 VRB05KT P6SM SKC
FM051600 VRB06KT P6SM SCT100
FM052100 22008KT P6SM SKC
FIR KZLC / Amérique du Nord



MET'MAP, la Météo Aéronautique d'un coup d'oeil ! - Copyright ORBIFLY Décembre 2007 - Disclaimer

ORBIFLY MET'MAP TEAM :

Programmation & Développement : Alexandra Zaïnal
Sur une idée originale de : Baudouin d'Aumeries
Assistance à la programmation : Marc-Olivier Méhu
Soutien technique & logistique : Manuel Goepfert

Contact : metmap@orbifly.com




SOURCES & CREDITS :

   NOAA       Earth
Advisory